sensor_id;sensor_type;location;lat;lon;timestamp;pressure;altitude;pressure_sealevel;temperature;humidity
50484;BME280;36409;52.168;20.878;2023-01-31T00:01:21;99205.34;;;1.35;82.68
50484;BME280;36409;52.168;20.878;2023-01-31T00:04:01;99214.78;;;1.36;83.64
50484;BME280;36409;52.168;20.878;2023-01-31T00:06:32;99213.94;;;1.36;83.78
50484;BME280;36409;52.168;20.878;2023-01-31T00:09:03;99213.08;;;1.38;82.74
50484;BME280;36409;52.168;20.878;2023-01-31T00:11:33;99212.23;;;1.38;83.54
50484;BME280;36409;52.168;20.878;2023-01-31T00:14:05;99231.95;;;1.39;83.12
50484;BME280;36409;52.168;20.878;2023-01-31T00:16:34;99219.95;;;1.39;83.68
50484;BME280;36409;52.168;20.878;2023-01-31T00:19:05;99217.37;;;1.41;82.89
50484;BME280;36409;52.168;20.878;2023-01-31T00:21:35;99226.81;;;1.41;83.20
50484;BME280;36409;52.168;20.878;2023-01-31T00:24:05;99227.69;;;1.43;82.70
50484;BME280;36409;52.168;20.878;2023-01-31T00:26:35;99226.83;;;1.44;83.73
50484;BME280;36409;52.168;20.878;2023-01-31T00:29:05;99233.70;;;1.45;83.04
50484;BME280;36409;52.168;20.878;2023-01-31T00:31:35;99237.11;;;1.47;83.46
50484;BME280;36409;52.168;20.878;2023-01-31T00:34:06;99239.69;;;1.47;83.10
50484;BME280;36409;52.168;20.878;2023-01-31T00:36:35;99247.40;;;1.47;83.21
50484;BME280;36409;52.168;20.878;2023-01-31T00:39:08;99245.70;;;1.49;83.50
50484;BME280;36409;52.168;20.878;2023-01-31T00:41:38;99241.41;;;1.48;83.16
50484;BME280;36409;52.168;20.878;2023-01-31T00:44:08;99248.27;;;1.49;83.82
50484;BME280;36409;52.168;20.878;2023-01-31T00:46:39;99243.16;;;1.50;82.80
50484;BME280;36409;52.168;20.878;2023-01-31T00:49:09;99249.14;;;1.51;82.83
50484;BME280;36409;52.168;20.878;2023-01-31T00:51:38;99255.17;;;1.51;83.52
50484;BME280;36409;52.168;20.878;2023-01-31T00:54:08;99260.31;;;1.51;82.69
50484;BME280;36409;52.168;20.878;2023-01-31T00:56:37;99267.14;;;1.52;82.76
50484;BME280;36409;52.168;20.878;2023-01-31T00:59:06;99266.30;;;1.52;83.04
50484;BME280;36409;52.168;20.878;2023-01-31T01:01:37;99256.86;;;1.52;83.77
50484;BME280;36409;52.168;20.878;2023-01-31T01:04:06;99269.72;;;1.52;82.82
50484;BME280;36409;52.168;20.878;2023-01-31T01:06:38;99274.02;;;1.52;82.78
50484;BME280;36409;52.168;20.878;2023-01-31T01:09:08;99276.59;;;1.52;83.40
50484;BME280;36409;52.168;20.878;2023-01-31T01:11:37;99280.02;;;1.51;82.80
50484;BME280;36409;52.168;20.878;2023-01-31T01:14:06;99284.31;;;1.50;82.92
50484;BME280;36409;52.168;20.878;2023-01-31T01:16:37;99284.31;;;1.52;82.91
50484;BME280;36409;52.168;20.878;2023-01-31T01:19:12;99281.73;;;1.52;83.70
50484;BME280;36409;52.168;20.878;2023-01-31T01:21:43;99278.31;;;1.51;83.51
50484;BME280;36409;52.168;20.878;2023-01-31T01:24:14;99277.44;;;1.51;83.04
50484;BME280;36409;52.168;20.878;2023-01-31T01:26:44;99277.44;;;1.51;82.78
50484;BME280;36409;52.168;20.878;2023-01-31T01:29:14;99281.71;;;1.49;83.79
50484;BME280;36409;52.168;20.878;2023-01-31T01:31:44;99281.71;;;1.49;83.14
50484;BME280;36409;52.168;20.878;2023-01-31T01:34:16;99281.71;;;1.47;82.72
50484;BME280;36409;52.168;20.878;2023-01-31T01:36:46;99278.27;;;1.47;82.71
50484;BME280;36409;52.168;20.878;2023-01-31T01:39:17;99286.86;;;1.46;82.86
50484;BME280;36409;52.168;20.878;2023-01-31T01:41:47;99287.68;;;1.43;83.25
50484;BME280;36409;52.168;20.878;2023-01-31T01:44:45;99285.11;;;1.42;83.27
50484;BME280;36409;52.168;20.878;2023-01-31T01:47:31;99290.26;;;1.40;82.95
50484;BME280;36409;52.168;20.878;2023-01-31T01:50:03;99294.52;;;1.38;83.29
50484;BME280;36409;52.168;20.878;2023-01-31T01:52:41;99306.53;;;1.39;82.81
50484;BME280;36409;52.168;20.878;2023-01-31T01:55:18;99313.41;;;1.40;82.82
50484;BME280;36409;52.168;20.878;2023-01-31T01:57:51;99318.55;;;1.42;83.73
50484;BME280;36409;52.168;20.878;2023-01-31T02:00:23;99323.69;;;1.42;82.92
50484;BME280;36409;52.168;20.878;2023-01-31T02:02:58;99327.98;;;1.43;82.88
50484;BME280;36409;52.168;20.878;2023-01-31T02:05:32;99320.27;;;1.44;82.92
50484;BME280;36409;52.168;20.878;2023-01-31T02:08:03;99334.84;;;1.45;83.58
50484;BME280;36409;52.168;20.878;2023-01-31T02:10:35;99328.86;;;1.45;83.89
50484;BME280;36409;52.168;20.878;2023-01-31T02:13:08;99343.44;;;1.46;83.11
50484;BME280;36409;52.168;20.878;2023-01-31T02:15:37;99346.86;;;1.48;83.77
50484;BME280;36409;52.168;20.878;2023-01-31T02:18:07;99354.61;;;1.49;83.65
50484;BME280;36409;52.168;20.878;2023-01-31T02:27:41;99355.48;;;1.51;83.07
50484;BME280;36409;52.168;20.878;2023-01-31T02:33:32;99370.06;;;1.54;83.25
50484;BME280;36409;52.168;20.878;2023-01-31T02:36:11;99367.49;;;1.56;82.77
50484;BME280;36409;52.168;20.878;2023-01-31T02:38:54;99376.09;;;1.58;83.32
50484;BME280;36409;52.168;20.878;2023-01-31T02:41:31;99385.53;;;1.59;82.90
50484;BME280;36409;52.168;20.878;2023-01-31T02:44:12;99382.95;;;1.60;83.17
50484;BME280;36409;52.168;20.878;2023-01-31T02:47:12;99396.70;;;1.61;83.85
50484;BME280;36409;52.168;20.878;2023-01-31T02:49:49;99404.41;;;1.62;83.24
50484;BME280;36409;52.168;20.878;2023-01-31T02:52:25;99406.14;;;1.63;83.11
50484;BME280;36409;52.168;20.878;2023-01-31T02:55:07;99403.56;;;1.63;82.90
50484;BME280;36409;52.168;20.878;2023-01-31T02:57:57;99411.28;;;1.63;83.84
50484;BME280;36409;52.168;20.878;2023-01-31T03:00:29;99414.73;;;1.65;83.29
50484;BME280;36409;52.168;20.878;2023-01-31T03:03:01;99422.45;;;1.65;82.85
50484;BME280;36409;52.168;20.878;2023-01-31T03:05:31;99422.45;;;1.65;83.64
50484;BME280;36409;52.168;20.878;2023-01-31T03:08:02;99431.89;;;1.68;83.32
50484;BME280;36409;52.168;20.878;2023-01-31T03:10:58;99441.34;;;1.69;83.18
50484;BME280;36409;52.168;20.878;2023-01-31T03:13:45;99445.64;;;1.68;83.31
50484;BME280;36409;52.168;20.878;2023-01-31T03:16:23;99442.19;;;1.68;83.53
50484;BME280;36409;52.168;20.878;2023-01-31T03:19:17;99453.36;;;1.68;82.79
50484;BME280;36409;52.168;20.878;2023-01-31T03:21:51;99457.63;;;1.69;82.78
50484;BME280;36409;52.168;20.878;2023-01-31T03:24:23;99456.78;;;1.69;83.23
50484;BME280;36409;52.168;20.878;2023-01-31T03:27:00;99471.37;;;1.70;82.94
50484;BME280;36409;52.168;20.878;2023-01-31T03:29:34;99471.37;;;1.70;83.74
50484;BME280;36409;52.168;20.878;2023-01-31T03:32:10;99477.36;;;1.70;83.80
50484;BME280;36409;52.168;20.878;2023-01-31T03:34:45;99482.51;;;1.70;82.81
50484;BME280;36409;52.168;20.878;2023-01-31T03:37:18;99477.36;;;1.70;83.16
50484;BME280;36409;52.168;20.878;2023-01-31T03:39:58;99476.52;;;1.72;82.64
50484;BME280;36409;52.168;20.878;2023-01-31T03:42:32;99486.81;;;1.72;83.64
50484;BME280;36409;52.168;20.878;2023-01-31T03:45:13;99485.08;;;1.70;83.63
50484;BME280;36409;52.168;20.878;2023-01-31T03:47:48;99482.51;;;1.70;82.76
50484;BME280;36409;52.168;20.878;2023-01-31T03:50:22;99483.39;;;1.71;83.02
50484;BME280;36409;52.168;20.878;2023-01-31T03:52:57;99482.51;;;1.70;82.78
50484;BME280;36409;52.168;20.878;2023-01-31T03:55:32;99479.09;;;1.70;82.71
50484;BME280;36409;52.168;20.878;2023-01-31T03:58:02;99487.66;;;1.69;83.25
50484;BME280;36409;52.168;20.878;2023-01-31T04:00:34;99496.22;;;1.66;83.57
50484;BME280;36409;52.168;20.878;2023-01-31T04:03:09;99488.50;;;1.66;83.63
50484;BME280;36409;52.168;20.878;2023-01-31T04:05:40;99497.06;;;1.67;83.66
50484;BME280;36409;52.168;20.878;2023-01-31T04:08:10;99494.49;;;1.65;83.54
50484;BME280;36409;52.168;20.878;2023-01-31T04:10:41;99498.76;;;1.65;83.08
50484;BME280;36409;52.168;20.878;2023-01-31T04:13:10;99497.91;;;1.64;82.63
50484;BME280;36409;52.168;20.878;2023-01-31T04:15:39;99503.06;;;1.64;82.54
50484;BME280;36409;52.168;20.878;2023-01-31T04:18:09;99503.91;;;1.63;82.59
50484;BME280;36409;52.168;20.878;2023-01-31T04:20:38;99511.63;;;1.63;82.63
50484;BME280;36409;52.168;20.878;2023-01-31T04:23:07;99515.92;;;1.63;82.60
50484;BME280;36409;52.168;20.878;2023-01-31T04:25:37;99515.04;;;1.62;82.61
50484;BME280;36409;52.168;20.878;2023-01-31T04:30:34;99527.06;;;1.63;82.85
50484;BME280;36409;52.168;20.878;2023-01-31T04:33:03;99532.20;;;1.63;82.87
50484;BME280;36409;52.168;20.878;2023-01-31T04:35:32;99534.78;;;1.63;82.48
50484;BME280;36409;52.168;20.878;2023-01-31T04:38:02;99547.64;;;1.63;83.12
50484;BME280;36409;52.168;20.878;2023-01-31T04:40:31;99545.06;;;1.62;82.46
50484;BME280;36409;52.168;20.878;2023-01-31T04:43:00;99551.02;;;1.59;82.96
50484;BME280;36409;52.168;20.878;2023-01-31T04:45:32;99546.72;;;1.58;83.17
50484;BME280;36409;52.168;20.878;2023-01-31T04:48:03;99548.45;;;1.58;82.62
50484;BME280;36409;52.168;20.878;2023-01-31T04:50:34;99559.58;;;1.57;82.78
50484;BME280;36409;52.168;20.878;2023-01-31T04:53:04;99563.88;;;1.56;82.79
50484;BME280;36409;52.168;20.878;2023-01-31T04:55:36;99567.30;;;1.55;83.00
50484;BME280;36409;52.168;20.878;2023-01-31T04:58:05;99569.87;;;1.55;83.26
50484;BME280;36409;52.168;20.878;2023-01-31T05:00:35;99563.00;;;1.56;83.36
50484;BME280;36409;52.168;20.878;2023-01-31T05:03:05;99568.14;;;1.56;83.14
50484;BME280;36409;52.168;20.878;2023-01-31T05:05:34;99575.02;;;1.57;82.50
50484;BME280;36409;52.168;20.878;2023-01-31T05:08:07;99581.05;;;1.57;83.45
50484;BME280;36409;52.168;20.878;2023-01-31T05:10:36;99583.63;;;1.59;83.29
50484;BME280;36409;52.168;20.878;2023-01-31T05:13:05;99587.03;;;1.58;83.23
50484;BME280;36409;52.168;20.878;2023-01-31T05:15:35;99591.34;;;1.60;82.34
50484;BME280;36409;52.168;20.878;2023-01-31T05:18:06;99592.19;;;1.59;82.57
50484;BME280;36409;52.168;20.878;2023-01-31T05:20:37;99597.37;;;1.62;82.91
50484;BME280;36409;52.168;20.878;2023-01-31T05:23:08;99596.52;;;1.62;83.26
50484;BME280;36409;52.168;20.878;2023-01-31T05:25:37;99607.66;;;1.62;82.81
50484;BME280;36409;52.168;20.878;2023-01-31T05:28:06;99612.81;;;1.64;82.77
50484;BME280;36409;52.168;20.878;2023-01-31T05:30:36;99607.66;;;1.62;82.83
50484;BME280;36409;52.168;20.878;2023-01-31T05:33:05;99620.53;;;1.64;82.24
50484;BME280;36409;52.168;20.878;2023-01-31T05:35:34;99625.67;;;1.64;82.60
50484;BME280;36409;52.168;20.878;2023-01-31T05:38:05;99630.82;;;1.64;83.01
50484;BME280;36409;52.168;20.878;2023-01-31T05:40:35;99638.54;;;1.64;82.53
50484;BME280;36409;52.168;20.878;2023-01-31T05:43:04;99643.69;;;1.64;82.16
50484;BME280;36409;52.168;20.878;2023-01-31T05:45:33;99641.99;;;1.64;82.48
50484;BME280;36409;52.168;20.878;2023-01-31T05:48:04;99640.27;;;1.63;82.59
50484;BME280;36409;52.168;20.878;2023-01-31T05:50:33;99641.98;;;1.63;82.24
50484;BME280;36409;52.168;20.878;2023-01-31T05:53:10;99653.97;;;1.62;82.93
50484;BME280;36409;52.168;20.878;2023-01-31T05:55:39;99663.42;;;1.62;82.71
50484;BME280;36409;52.168;20.878;2023-01-31T05:58:08;99658.23;;;1.60;82.36
50484;BME280;36409;52.168;20.878;2023-01-31T06:00:37;99663.38;;;1.59;82.85
50484;BME280;36409;52.168;20.878;2023-01-31T06:03:06;99667.63;;;1.57;82.51
50484;BME280;36409;52.168;20.878;2023-01-31T06:05:36;99679.64;;;1.56;81.94
50484;BME280;36409;52.168;20.878;2023-01-31T06:08:07;99684.75;;;1.54;82.43
50484;BME280;36409;52.168;20.878;2023-01-31T06:10:37;99689.89;;;1.53;81.87
50484;BME280;36409;52.168;20.878;2023-01-31T06:13:07;99689.00;;;1.51;82.07
50484;BME280;36409;52.168;20.878;2023-01-31T06:15:36;99690.73;;;1.50;82.65
50484;BME280;36409;52.168;20.878;2023-01-31T06:18:10;99706.16;;;1.50;81.88
50484;BME280;36409;52.168;20.878;2023-01-31T06:20:40;99707.85;;;1.50;81.85
50484;BME280;36409;52.168;20.878;2023-01-31T06:23:09;99713.84;;;1.49;82.41
50484;BME280;36409;52.168;20.878;2023-01-31T06:25:38;99710.42;;;1.48;82.25
50484;BME280;36409;52.168;20.878;2023-01-31T06:28:07;99719.83;;;1.48;82.51
50484;BME280;36409;52.168;20.878;2023-01-31T06:30:37;99733.53;;;1.47;81.82
50484;BME280;36409;52.168;20.878;2023-01-31T06:33:06;99736.10;;;1.47;82.64
50484;BME280;36409;52.168;20.878;2023-01-31T06:35:36;99730.95;;;1.47;81.90
50484;BME280;36409;52.168;20.878;2023-01-31T06:38:06;99734.41;;;1.47;82.24
50484;BME280;36409;52.168;20.878;2023-01-31T06:40:35;99736.10;;;1.47;82.39
50484;BME280;36409;52.168;20.878;2023-01-31T06:43:04;99743.81;;;1.47;81.64
50484;BME280;36409;52.168;20.878;2023-01-31T06:45:34;99748.96;;;1.47;82.33
50484;BME280;36409;52.168;20.878;2023-01-31T06:48:04;99748.13;;;1.48;81.94
50484;BME280;36409;52.168;20.878;2023-01-31T06:50:33;99752.42;;;1.49;81.78
50484;BME280;36409;52.168;20.878;2023-01-31T06:53:02;99754.20;;;1.51;82.47
50484;BME280;36409;52.168;20.878;2023-01-31T06:55:32;99761.92;;;1.53;81.71
50484;BME280;36409;52.168;20.878;2023-01-31T06:58:02;99764.50;;;1.54;82.53
50484;BME280;36409;52.168;20.878;2023-01-31T07:00:31;99772.27;;;1.56;82.10
50484;BME280;36409;52.168;20.878;2023-01-31T07:03:00;99777.41;;;1.58;82.39
50484;BME280;36409;52.168;20.878;2023-01-31T07:05:30;99783.45;;;1.61;82.16
50484;BME280;36409;52.168;20.878;2023-01-31T07:08:03;99784.34;;;1.63;82.29
50484;BME280;36409;52.168;20.878;2023-01-31T07:10:36;99788.70;;;1.67;81.89
50484;BME280;36409;52.168;20.878;2023-01-31T07:13:05;99794.75;;;1.71;81.83
50484;BME280;36409;52.168;20.878;2023-01-31T07:15:37;99802.52;;;1.74;81.93
50484;BME280;36409;52.168;20.878;2023-01-31T07:18:07;99805.10;;;1.77;82.47
50484;BME280;36409;52.168;20.878;2023-01-31T07:20:36;99813.72;;;1.81;81.81
50484;BME280;36409;52.168;20.878;2023-01-31T07:23:05;99811.19;;;1.84;81.55
50484;BME280;36409;52.168;20.878;2023-01-31T07:25:35;99822.38;;;1.86;81.85
50484;BME280;36409;52.168;20.878;2023-01-31T07:28:05;99819.81;;;1.88;81.80
50484;BME280;36409;52.168;20.878;2023-01-31T07:30:35;99826.69;;;1.87;81.43
50484;BME280;36409;52.168;20.878;2023-01-31T07:33:05;99829.31;;;1.90;81.42
50484;BME280;36409;52.168;20.878;2023-01-31T07:35:34;99831.05;;;1.94;81.63
50484;BME280;36409;52.168;20.878;2023-01-31T07:38:04;99827.69;;;1.98;81.58
50484;BME280;36409;52.168;20.878;2023-01-31T07:40:33;99828.53;;;1.99;81.48
50484;BME280;36409;52.168;20.878;2023-01-31T07:43:03;99833.73;;;2.02;81.94
50484;BME280;36409;52.168;20.878;2023-01-31T07:45:36;99847.48;;;2.04;82.21
50484;BME280;36409;52.168;20.878;2023-01-31T07:48:08;99857.84;;;2.09;82.20
50484;BME280;36409;52.168;20.878;2023-01-31T07:50:37;99855.27;;;2.10;81.29
50484;BME280;36409;52.168;20.878;2023-01-31T07:53:07;99863.04;;;2.12;81.91
50484;BME280;36409;52.168;20.878;2023-01-31T07:55:36;99867.36;;;2.16;81.17
50484;BME280;36409;52.168;20.878;2023-01-31T07:58:05;99862.25;;;2.19;82.01
50484;BME280;36409;52.168;20.878;2023-01-31T08:00:35;99860.56;;;2.21;81.13
50484;BME280;36409;52.168;20.878;2023-01-31T08:03:25;99871.81;;;2.28;81.28
50484;BME280;36409;52.168;20.878;2023-01-31T08:06:03;99870.17;;;2.35;81.28
50484;BME280;36409;52.168;20.878;2023-01-31T08:08:36;99879.68;;;2.40;81.20
50484;BME280;36409;52.168;20.878;2023-01-31T08:11:05;99876.27;;;2.43;81.18
50484;BME280;36409;52.168;20.878;2023-01-31T08:13:35;99883.16;;;2.44;80.88
50484;BME280;36409;52.168;20.878;2023-01-31T08:16:08;99886.58;;;2.44;80.91
50484;BME280;36409;52.168;20.878;2023-01-31T08:18:40;99888.30;;;2.44;80.96
50484;BME280;36409;52.168;20.878;2023-01-31T08:21:12;99892.61;;;2.45;81.04
50484;BME280;36409;52.168;20.878;2023-01-31T08:23:42;99898.66;;;2.50;80.73
50484;BME280;36409;52.168;20.878;2023-01-31T08:26:15;99897.87;;;2.56;80.60
50484;BME280;36409;52.168;20.878;2023-01-31T08:28:45;99896.22;;;2.61;80.80
50484;BME280;36409;52.168;20.878;2023-01-31T08:31:17;99900.49;;;2.60;81.09
50484;BME280;36409;52.168;20.878;2023-01-31T08:33:47;99905.69;;;2.62;80.38
50484;BME280;36409;52.168;20.878;2023-01-31T08:36:20;99903.11;;;2.62;81.26
50484;BME280;36409;52.168;20.878;2023-01-31T08:38:50;99907.41;;;2.63;80.83
50484;BME280;36409;52.168;20.878;2023-01-31T08:41:21;99903.16;;;2.68;80.88
50484;BME280;36409;52.168;20.878;2023-01-31T08:43:51;99906.67;;;2.76;81.13
50484;BME280;36409;52.168;20.878;2023-01-31T08:46:30;99908.45;;;2.82;80.50
50484;BME280;36409;52.168;20.878;2023-01-31T08:49:04;99912.80;;;2.88;80.87
50484;BME280;36409;52.168;20.878;2023-01-31T08:51:34;99906.83;;;2.90;80.66
50484;BME280;36409;52.168;20.878;2023-01-31T08:54:04;99916.30;;;2.91;80.05
50484;BME280;36409;52.168;20.878;2023-01-31T08:56:34;99905.11;;;2.91;80.19
50484;BME280;36409;52.168;20.878;2023-01-31T08:59:03;99915.41;;;2.89;80.03
50484;BME280;36409;52.168;20.878;2023-01-31T09:01:33;99918.84;;;2.90;80.37
50484;BME280;36409;52.168;20.878;2023-01-31T09:04:03;99924.84;;;2.89;80.41
50484;BME280;36409;52.168;20.878;2023-01-31T09:06:32;99926.53;;;2.85;80.29
50484;BME280;36409;52.168;20.878;2023-01-31T09:09:01;99929.95;;;2.84;80.01
50484;BME280;36409;52.168;20.878;2023-01-31T09:11:31;99929.06;;;2.82;80.60
50484;BME280;36409;52.168;20.878;2023-01-31T09:14:02;99927.38;;;2.81;80.72
50484;BME280;36409;52.168;20.878;2023-01-31T09:16:31;99932.48;;;2.80;80.02
50484;BME280;36409;52.168;20.878;2023-01-31T09:19:02;99941.95;;;2.81;79.78
50484;BME280;36409;52.168;20.878;2023-01-31T09:21:31;99946.26;;;2.80;80.55
50484;BME280;36409;52.168;20.878;2023-01-31T09:24:01;99942.84;;;2.81;79.70
50484;BME280;36409;52.168;20.878;2023-01-31T09:26:31;99943.73;;;2.85;79.98
50484;BME280;36409;52.168;20.878;2023-01-31T09:29:01;99942.04;;;2.87;79.96
50484;BME280;36409;52.168;20.878;2023-01-31T09:31:30;99948.93;;;2.89;79.96
50484;BME280;36409;52.168;20.878;2023-01-31T09:34:00;99952.36;;;2.90;80.46
50484;BME280;36409;52.168;20.878;2023-01-31T09:36:29;99958.36;;;2.89;80.26
50484;BME280;36409;52.168;20.878;2023-01-31T09:38:58;99965.20;;;2.85;80.33
50484;BME280;36409;52.168;20.878;2023-01-31T09:41:31;99962.66;;;2.87;80.12
50484;BME280;36409;52.168;20.878;2023-01-31T09:44:04;99966.09;;;2.86;79.71
50484;BME280;36409;52.168;20.878;2023-01-31T09:46:37;99967.82;;;2.87;80.31
50484;BME280;36409;52.168;20.878;2023-01-31T09:49:15;99968.67;;;2.87;79.89
50484;BME280;36409;52.168;20.878;2023-01-31T09:51:50;99960.09;;;2.90;79.71
50484;BME280;36409;52.168;20.878;2023-01-31T09:54:28;99959.33;;;2.99;79.47
50484;BME280;36409;52.168;20.878;2023-01-31T09:57:04;99968.84;;;3.04;79.57
50484;BME280;36409;52.168;20.878;2023-01-31T09:59:45;99973.16;;;3.07;80.07
50484;BME280;36409;52.168;20.878;2023-01-31T10:02:39;99968.00;;;3.07;79.65
50484;BME280;36409;52.168;20.878;2023-01-31T10:05:21;99965.47;;;3.12;79.87
50484;BME280;36409;52.168;20.878;2023-01-31T10:08:02;99964.66;;;3.14;79.22
50484;BME280;36409;52.168;20.878;2023-01-31T10:10:37;99965.55;;;3.21;79.46
50484;BME280;36409;52.168;20.878;2023-01-31T10:13:13;99963.05;;;3.26;79.34
50484;BME280;36409;52.168;20.878;2023-01-31T10:15:48;99960.61;;;3.46;78.90
50484;BME280;36409;52.168;20.878;2023-01-31T10:18:24;99961.78;;;3.86;78.40
50484;BME280;36409;52.168;20.878;2023-01-31T10:20:59;99964.31;;;3.77;78.59
50484;BME280;36409;52.168;20.878;2023-01-31T10:23:35;99968.63;;;3.78;79.26
50484;BME280;36409;52.168;20.878;2023-01-31T10:26:13;99961.73;;;3.76;78.94
50484;BME280;36409;52.168;20.878;2023-01-31T10:28:48;99961.70;;;3.74;78.83
50484;BME280;36409;52.168;20.878;2023-01-31T10:31:27;99961.73;;;3.76;78.54
50484;BME280;36409;52.168;20.878;2023-01-31T10:34:04;99961.76;;;3.80;79.40
50484;BME280;36409;52.168;20.878;2023-01-31T10:36:39;99960.05;;;3.85;78.94
50484;BME280;36409;52.168;20.878;2023-01-31T10:39:17;99963.48;;;3.84;78.84
50484;BME280;36409;52.168;20.878;2023-01-31T10:42:05;99959.17;;;3.82;78.62
50484;BME280;36409;52.168;20.878;2023-01-31T10:44:42;99962.64;;;3.82;78.58
50484;BME280;36409;52.168;20.878;2023-01-31T10:47:17;99960.08;;;3.89;78.83
50484;BME280;36409;52.168;20.878;2023-01-31T10:49:48;99956.67;;;3.94;78.67
50484;BME280;36409;52.168;20.878;2023-01-31T10:52:39;99961.81;;;3.90;78.20
50484;BME280;36409;52.168;20.878;2023-01-31T10:55:38;99960.94;;;3.86;78.07
50484;BME280;36409;52.168;20.878;2023-01-31T10:58:12;99961.73;;;3.79;77.75
50484;BME280;36409;52.168;20.878;2023-01-31T11:00:42;99959.11;;;3.73;77.91
50484;BME280;36409;52.168;20.878;2023-01-31T11:03:14;99955.66;;;3.70;77.99
50484;BME280;36409;52.168;20.878;2023-01-31T11:05:47;99962.58;;;3.78;78.59
50484;BME280;36409;52.168;20.878;2023-01-31T11:08:31;99950.52;;;3.75;77.72
50484;BME280;36409;52.168;20.878;2023-01-31T11:11:07;99953.13;;;3.77;77.93
50484;BME280;36409;52.168;20.878;2023-01-31T11:13:35;99953.98;;;3.77;77.62
50484;BME280;36409;52.168;20.878;2023-01-31T11:16:08;99961.73;;;3.77;77.74
50484;BME280;36409;52.168;20.878;2023-01-31T11:18:43;99973.78;;;3.80;78.04
50484;BME280;36409;52.168;20.878;2023-01-31T11:21:21;99972.09;;;3.83;77.63
50484;BME280;36409;52.168;20.878;2023-01-31T11:23:51;99966.92;;;3.83;77.68
50484;BME280;36409;52.168;20.878;2023-01-31T11:26:29;99967.80;;;3.82;77.57
50484;BME280;36409;52.168;20.878;2023-01-31T11:28:59;99973.78;;;3.80;77.59
50484;BME280;36409;52.168;20.878;2023-01-31T11:31:32;99978.95;;;3.78;78.16
50484;BME280;36409;52.168;20.878;2023-01-31T11:34:04;99982.38;;;3.79;77.65
50484;BME280;36409;52.168;20.878;2023-01-31T11:36:46;99971.17;;;3.75;78.00
50484;BME280;36409;52.168;20.878;2023-01-31T11:39:29;99981.50;;;3.74;77.59
50484;BME280;36409;52.168;20.878;2023-01-31T11:42:04;99976.30;;;3.72;77.60
50484;BME280;36409;52.168;20.878;2023-01-31T11:44:33;99971.99;;;3.68;77.24
50484;BME280;36409;52.168;20.878;2023-01-31T11:47:04;99969.41;;;3.69;77.24
50484;BME280;36409;52.168;20.878;2023-01-31T11:49:42;99976.30;;;3.70;77.64
50484;BME280;36409;52.168;20.878;2023-01-31T11:52:14;99964.28;;;3.73;77.84
50484;BME280;36409;52.168;20.878;2023-01-31T11:54:47;99962.58;;;3.78;77.31
50484;BME280;36409;52.168;20.878;2023-01-31T11:57:22;99956.59;;;3.83;77.77
50484;BME280;36409;52.168;20.878;2023-01-31T11:59:57;99957.50;;;3.90;76.90
50484;BME280;36409;52.168;20.878;2023-01-31T12:02:33;99958.38;;;3.92;77.25
50484;BME280;36409;52.168;20.878;2023-01-31T12:05:09;99950.66;;;3.94;77.21
50484;BME280;36409;52.168;20.878;2023-01-31T12:07:45;99947.22;;;3.98;76.72
50484;BME280;36409;52.168;20.878;2023-01-31T12:10:34;99938.70;;;4.11;77.32
50484;BME280;36409;52.168;20.878;2023-01-31T12:13:13;99942.17;;;4.20;76.93
50484;BME280;36409;52.168;20.878;2023-01-31T12:15:51;99926.72;;;4.27;77.44
50484;BME280;36409;52.168;20.878;2023-01-31T12:18:49;99925.87;;;4.35;77.01
50484;BME280;36409;52.168;20.878;2023-01-31T12:21:33;99935.41;;;4.46;76.93
50484;BME280;36409;52.168;20.878;2023-01-31T12:24:15;99926.82;;;4.52;76.35
50484;BME280;36409;52.168;20.878;2023-01-31T12:26:50;99932.00;;;4.58;76.66
50484;BME280;36409;52.168;20.878;2023-01-31T12:29:39;99921.70;;;4.69;76.70
50484;BME280;36409;52.168;20.878;2023-01-31T12:32:34;99922.59;;;4.76;76.62
50484;BME280;36409;52.168;20.878;2023-01-31T12:35:20;99921.72;;;4.85;76.52
50484;BME280;36409;52.168;20.878;2023-01-31T12:38:03;99913.14;;;4.92;76.42
50484;BME280;36409;52.168;20.878;2023-01-31T12:40:44;99920.03;;;4.94;75.76
50484;BME280;36409;52.168;20.878;2023-01-31T12:43:33;99919.19;;;5.03;75.88
50484;BME280;36409;52.168;20.878;2023-01-31T12:46:13;99912.29;;;5.12;75.88
50484;BME280;36409;52.168;20.878;2023-01-31T12:49:12;99907.97;;;5.20;75.76
50484;BME280;36409;52.168;20.878;2023-01-31T12:51:48;99913.16;;;5.23;75.56
50484;BME280;36409;52.168;20.878;2023-01-31T12:54:38;99926.94;;;5.09;75.32
50484;BME280;36409;52.168;20.878;2023-01-31T12:57:26;99925.22;;;4.98;75.12
50484;BME280;36409;52.168;20.878;2023-01-31T13:00:07;99916.56;;;4.82;74.72
50484;BME280;36409;52.168;20.878;2023-01-31T13:02:44;99921.68;;;4.68;74.78
50484;BME280;36409;52.168;20.878;2023-01-31T13:05:29;99929.42;;;4.55;75.00
50484;BME280;36409;52.168;20.878;2023-01-31T13:08:04;99927.64;;;4.43;74.44
50484;BME280;36409;52.168;20.878;2023-01-31T13:10:39;99925.86;;;4.30;74.69
50484;BME280;36409;52.168;20.878;2023-01-31T13:13:18;99920.63;;;4.16;74.25
50484;BME280;36409;52.168;20.878;2023-01-31T13:15:54;99927.44;;;3.98;74.74
50484;BME280;36409;52.168;20.878;2023-01-31T13:18:27;99920.47;;;3.85;74.37
50484;BME280;36409;52.168;20.878;2023-01-31T13:21:00;99914.41;;;3.78;74.35
50484;BME280;36409;52.168;20.878;2023-01-31T13:23:33;99913.52;;;3.78;74.60
50484;BME280;36409;52.168;20.878;2023-01-31T13:26:12;99916.93;;;3.72;74.30
50484;BME280;36409;52.168;20.878;2023-01-31T13:28:48;99902.30;;;3.68;74.22
50484;BME280;36409;52.168;20.878;2023-01-31T13:31:22;99909.98;;;3.60;74.09
50484;BME280;36409;52.168;20.878;2023-01-31T13:33:59;99909.06;;;3.52;74.33
50484;BME280;36409;52.168;20.878;2023-01-31T13:36:32;99904.73;;;3.46;74.22
50484;BME280;36409;52.168;20.878;2023-01-31T13:39:05;99907.30;;;3.46;73.95
50484;BME280;36409;52.168;20.878;2023-01-31T13:41:37;99904.69;;;3.43;74.04
50484;BME280;36409;52.168;20.878;2023-01-31T13:44:12;99902.08;;;3.38;73.90
50484;BME280;36409;52.168;20.878;2023-01-31T13:46:48;99908.94;;;3.35;74.17